createdAt,value
2023-01-01T04:35:21.221Z,35.60
2023-01-01T04:45:37.123Z,36.10
2023-01-01T04:55:52.483Z,36.30
2023-01-01T05:06:10.660Z,35.90
2023-01-01T05:16:31.598Z,35.30
2023-01-01T05:26:46.964Z,34.30
2023-01-01T05:37:02.262Z,35.30
2023-01-01T05:47:18.696Z,34.70
2023-01-01T05:57:33.943Z,33.10
2023-01-01T06:07:49.279Z,32.80
2023-01-01T06:18:04.474Z,33.40
2023-01-01T06:28:19.893Z,33.00
2023-01-01T06:38:36.936Z,33.40
2023-01-01T06:48:58.055Z,35.30
2023-01-01T06:59:13.436Z,34.50
2023-01-01T07:09:28.837Z,33.70
2023-01-01T07:19:44.207Z,33.60
2023-01-01T07:29:59.660Z,32.50
2023-01-01T07:40:15.123Z,30.90
2023-01-01T07:50:32.153Z,30.30
2023-01-01T08:00:48.487Z,29.90
2023-01-01T08:11:04.463Z,29.80
2023-01-01T08:21:19.577Z,29.40
2023-01-01T08:31:35.032Z,24.40
2023-01-01T08:41:50.457Z,22.50
2023-01-01T08:52:05.769Z,24.00
2023-01-01T09:02:21.248Z,22.20
2023-01-01T09:12:36.315Z,21.00
2023-01-01T09:22:51.541Z,19.70
2023-01-01T09:33:06.862Z,19.60
2023-01-01T09:43:47.113Z,19.70
2023-01-01T09:54:19.934Z,21.30
2023-01-01T10:05:01.156Z,19.70
2023-01-01T10:15:22.835Z,19.70
2023-01-01T10:25:40.684Z,19.20
2023-01-01T10:35:58.420Z,21.60
2023-01-01T10:46:19.313Z,21.20
2023-01-01T10:56:41.665Z,21.70
2023-01-01T11:06:56.616Z,21.20
2023-01-01T11:17:11.939Z,21.00
2023-01-01T11:27:27.312Z,20.80
2023-01-01T11:37:45.218Z,20.80
2023-01-01T11:48:03.569Z,23.10
2023-01-01T11:58:37.916Z,24.70
2023-01-01T12:09:05.974Z,25.00
2023-01-01T12:19:28.400Z,23.00
2023-01-01T12:30:15.245Z,23.00
2023-01-01T12:40:43.548Z,23.50
2023-01-01T12:51:16.705Z,23.80
2023-01-01T13:01:34.760Z,23.80
2023-01-01T13:11:55.131Z,23.80
2023-01-01T13:22:25.686Z,24.80
2023-01-01T13:33:30.977Z,25.20
2023-01-01T13:43:46.043Z,26.10
2023-01-01T13:54:53.151Z,26.30
2023-01-01T14:05:24.768Z,27.00
2023-01-01T14:15:59.953Z,28.30
2023-01-01T14:26:18.679Z,28.10
2023-01-01T14:36:33.862Z,25.90
2023-01-01T14:46:51.008Z,24.80
2023-01-01T14:57:14.361Z,24.70
2023-01-01T15:07:31.372Z,26.60
2023-01-01T15:17:47.337Z,26.00
2023-01-01T15:28:02.819Z,25.00
2023-01-01T15:38:23.931Z,23.80
2023-01-01T15:48:51.342Z,23.30
2023-01-01T15:59:28.373Z,23.20
2023-01-01T16:09:43.727Z,23.60
2023-01-01T16:19:59.543Z,23.00
2023-01-01T16:30:15.685Z,23.30
2023-01-01T16:40:35.784Z,25.80
2023-01-01T16:50:53.033Z,26.70
2023-01-01T17:01:08.535Z,27.20
2023-01-01T17:11:24.814Z,23.50
2023-01-01T17:21:40.441Z,19.90
2023-01-01T17:31:55.677Z,19.10
2023-01-01T17:42:10.982Z,18.80
2023-01-01T17:52:28.246Z,17.10
2023-01-01T18:02:46.128Z,16.30
2023-01-01T18:13:02.153Z,16.10
2023-01-01T18:23:17.273Z,16.50
2023-01-01T18:33:34.373Z,16.60
2023-01-01T18:43:49.465Z,16.10
2023-01-01T18:54:13.032Z,17.90
2023-01-01T19:04:28.393Z,19.50
2023-01-01T19:14:43.844Z,20.50
2023-01-01T19:25:01.049Z,23.90
2023-01-01T19:35:16.774Z,26.40
2023-01-01T19:45:33.073Z,28.10
2023-01-01T19:55:48.126Z,31.80
2023-01-01T20:06:03.699Z,32.70
2023-01-01T20:16:18.969Z,33.20
2023-01-01T20:26:34.348Z,33.70
2023-01-01T20:37:08.438Z,33.40
2023-01-01T20:47:26.189Z,33.00
2023-01-01T20:57:41.694Z,32.20
2023-01-01T21:07:57.085Z,30.30
2023-01-01T21:18:13.399Z,27.10
2023-01-01T21:28:33.772Z,24.30
2023-01-01T21:38:50.376Z,24.20
2023-01-01T21:49:21.605Z,24.20
2023-01-01T21:59:39.623Z,24.00
2023-01-01T22:09:56.695Z,22.90
2023-01-01T22:20:24.355Z,19.40
